Time;durP1;ratioP1;P1;durP2;ratioP2;P2;SDS_P1;SDS_P2;PMS_P1;PMS_P2;Temp;Humidity;BMP_temperature;BMP_pressure;BME280_temperature;BME280_humidity;BME280_pressure;Samples;Min_cycle;Max_cycle;Signal;HPM_P1;HPM_P2
2023/11/13 00:00:20;;;;;;;8.73;3.87;;;7.00;98.00;;;;;;5031837;28;20452;-68
2023/11/13 00:02:47;;;;;;;5.90;3.30;;;6.90;98.00;;;;;;5032100;28;20522;-68
2023/11/13 00:05:15;;;;;;;7.80;3.90;;;6.80;98.00;;;;;;5031731;28;20455;-68
2023/11/13 00:07:42;;;;;;;5.77;3.30;;;6.70;98.00;;;;;;5031609;28;20482;-68
2023/11/13 00:10:09;;;;;;;6.97;3.83;;;6.80;98.00;;;;;;5031662;28;20449;-68
2023/11/13 00:12:37;;;;;;;5.60;3.50;;;6.80;98.00;;;;;;5031855;28;20456;-68
2023/11/13 00:15:07;;;;;;;7.17;3.80;;;6.80;98.00;;;;;;5030468;28;20458;-68
2023/11/13 00:17:34;;;;;;;6.17;3.57;;;6.70;98.00;;;;;;5031867;28;20444;-68
2023/11/13 00:20:01;;;;;;;6.67;3.40;;;6.80;98.00;;;;;;5031763;28;20815;-68
2023/11/13 00:22:28;;;;;;;8.07;3.80;;;6.80;98.00;;;;;;5035199;28;20455;-68
2023/11/13 00:24:58;;;;;;;4.60;2.93;;;6.80;98.00;;;;;;5035635;28;20455;-68
2023/11/13 00:27:26;;;;;;;9.57;3.33;;;6.80;98.00;;;;;;5035547;28;20610;-68
2023/11/13 00:29:54;;;;;;;5.90;3.40;;;7.00;98.00;;;;;;5034358;28;20511;-68
2023/11/13 00:32:22;;;;;;;9.13;3.53;;;7.10;98.00;;;;;;5034660;28;20451;-68
2023/11/13 00:34:49;;;;;;;5.27;3.10;;;7.10;98.00;;;;;;5035571;28;20447;-68
2023/11/13 00:37:16;;;;;;;6.97;3.30;;;7.00;98.00;;;;;;5035485;28;20943;-67
2023/11/13 00:39:43;;;;;;;4.73;3.00;;;7.00;98.00;;;;;;5034310;28;20462;-68
2023/11/13 00:42:11;;;;;;;6.23;3.47;;;6.90;98.00;;;;;;5034267;28;20461;-68
2023/11/13 00:44:38;;;;;;;7.30;3.00;;;7.00;98.00;;;;;;5034295;28;20485;-67
2023/11/13 00:47:06;;;;;;;10.53;3.37;;;7.00;98.00;;;;;;5034074;28;20485;-67
2023/11/13 00:49:35;;;;;;;8.10;3.40;;;7.00;98.00;;;;;;5035365;28;20815;-68
2023/11/13 00:52:02;;;;;;;6.93;3.40;;;7.10;98.00;;;;;;5035301;28;20876;-67
2023/11/13 00:54:28;;;;;;;5.07;2.90;;;7.20;98.00;;;;;;5035398;28;20526;-67
2023/11/13 00:56:57;;;;;;;6.53;3.20;;;7.20;98.00;;;;;;5035203;28;20463;-68
2023/11/13 00:59:24;;;;;;;5.43;3.27;;;7.10;98.00;;;;;;5035304;28;20855;-68
2023/11/13 01:01:51;;;;;;;6.87;3.40;;;7.00;98.00;;;;;;5033806;28;20822;-68
2023/11/13 01:04:17;;;;;;;7.17;3.40;;;7.00;98.00;;;;;;5035192;28;20459;-68
2023/11/13 01:06:47;;;;;;;7.17;3.13;;;7.00;98.00;;;;;;5034759;28;20492;-68
2023/11/13 01:09:14;;;;;;;5.27;2.80;;;7.00;98.00;;;;;;5033945;28;20460;-68
2023/11/13 01:11:42;;;;;;;5.83;3.67;;;7.00;98.00;;;;;;5034864;28;20459;-68
2023/11/13 01:14:09;;;;;;;5.80;3.43;;;7.00;98.00;;;;;;5035173;28;20510;-68
2023/11/13 01:16:37;;;;;;;6.17;3.20;;;7.00;98.00;;;;;;5034928;28;20451;-68
2023/11/13 01:19:05;;;;;;;5.60;3.20;;;7.00;98.00;;;;;;5034736;28;20450;-68
2023/11/13 01:21:32;;;;;;;6.90;2.87;;;7.10;98.00;;;;;;5034823;28;20465;-68
2023/11/13 01:24:00;;;;;;;8.30;3.53;;;7.30;98.00;;;;;;5035038;28;20459;-68
2023/11/13 01:26:27;;;;;;;5.10;2.90;;;7.20;98.00;;;;;;5034735;28;20490;-67
2023/11/13 01:28:57;;;;;;;6.87;3.20;;;7.30;98.00;;;;;;5033596;28;20464;-67
2023/11/13 01:31:25;;;;;;;8.33;3.67;;;7.20;98.00;;;;;;5034424;28;20956;-68
2023/11/13 01:33:53;;;;;;;6.70;3.27;;;7.10;98.00;;;;;;5033914;28;20453;-68
2023/11/13 01:36:20;;;;;;;6.97;3.43;;;7.10;98.00;;;;;;5033958;28;20455;-68
2023/11/13 01:38:47;;;;;;;6.37;3.27;;;7.10;98.00;;;;;;5032907;28;20452;-68
2023/11/13 01:41:16;;;;;;;5.70;2.90;;;7.10;98.00;;;;;;5034456;28;20449;-68
2023/11/13 01:43:43;;;;;;;5.57;3.40;;;7.20;98.00;;;;;;5034675;28;20463;-68
2023/11/13 01:46:10;;;;;;;6.20;3.30;;;7.10;98.00;;;;;;5034120;28;20962;-68
2023/11/13 01:48:38;;;;;;;5.63;3.00;;;7.10;98.00;;;;;;5034275;28;20456;-68
2023/11/13 01:51:07;;;;;;;5.20;3.00;;;7.20;98.00;;;;;;5034179;28;20769;-68
2023/11/13 01:53:35;;;;;;;6.10;3.37;;;7.30;98.00;;;;;;5033024;28;20951;-68
2023/11/13 01:56:03;;;;;;;5.73;3.33;;;7.20;98.00;;;;;;5033741;28;20452;-68
2023/11/13 01:58:31;;;;;;;5.57;2.83;;;7.30;98.00;;;;;;5033983;28;20514;-68
2023/11/13 02:00:58;;;;;;;6.27;3.20;;;7.50;98.00;;;;;;5033956;28;20921;-68
2023/11/13 02:03:27;;;;;;;6.40;3.20;;;7.50;98.00;;;;;;5034212;28;20457;-68
2023/11/13 02:05:55;;;;;;;5.70;2.83;;;7.40;98.00;;;;;;5033720;28;20446;-68
2023/11/13 02:08:22;;;;;;;4.83;2.63;;;7.40;98.00;;;;;;5033762;28;20902;-68
2023/11/13 02:10:49;;;;;;;5.83;3.00;;;7.40;98.00;;;;;;5033641;28;20501;-68
2023/11/13 02:13:18;;;;;;;5.50;2.93;;;7.30;98.00;;;;;;5033837;28;20463;-68
2023/11/13 02:15:46;;;;;;;5.90;3.07;;;7.20;98.00;;;;;;5032111;28;20462;-68
2023/11/13 02:18:30;;;;;;;4.20;2.60;;;7.20;98.00;;;;;;5033563;28;20950;-67
2023/11/13 02:20:57;;;;;;;5.50;2.70;;;7.40;98.00;;;;;;5013700;28;20458;-68
2023/11/13 02:23:26;;;;;;;4.93;2.90;;;7.30;98.00;;;;;;5012652;28;20452;-67
2023/11/13 02:25:56;;;;;;;6.47;3.00;;;7.30;98.00;;;;;;5013769;28;20492;-68
2023/11/13 02:28:24;;;;;;;7.23;2.60;;;7.30;98.00;;;;;;5013666;28;20536;-68
2023/11/13 02:30:51;;;;;;;7.33;3.13;;;7.40;98.00;;;;;;5013523;28;20939;-68
2023/11/13 02:33:18;;;;;;;4.70;2.73;;;7.50;98.00;;;;;;5013831;28;20533;-68
2023/11/13 02:35:46;;;;;;;5.03;3.23;;;7.70;98.00;;;;;;5013701;28;20459;-68
2023/11/13 02:38:13;;;;;;;5.43;2.90;;;7.70;98.00;;;;;;5013704;28;20471;-68
2023/11/13 02:40:45;;;;;;;6.83;3.33;;;7.70;98.00;;;;;;5013478;28;20464;-67
2023/11/13 02:43:12;;;;;;;4.70;2.80;;;7.60;98.00;;;;;;5013372;28;20459;-67
2023/11/13 02:45:40;;;;;;;4.53;2.53;;;7.50;98.00;;;;;;5013152;28;20942;-68
2023/11/13 02:48:07;;;;;;;3.77;2.30;;;7.40;98.00;;;;;;5013494;28;20487;-68
2023/11/13 02:50:34;;;;;;;4.23;2.60;;;7.30;98.00;;;;;;5013459;28;20802;-68
2023/11/13 02:53:02;;;;;;;3.27;2.10;;;7.30;98.00;;;;;;5013339;28;20481;-68
2023/11/13 02:55:29;;;;;;;3.20;2.30;;;7.30;98.00;;;;;;5013270;28;20535;-69
2023/11/13 02:57:57;;;;;;;3.50;2.33;;;7.20;98.00;;;;;;5013246;28;20461;-68
2023/11/13 03:00:24;;;;;;;3.40;2.30;;;7.20;98.00;;;;;;5013177;28;20455;-68
2023/11/13 03:02:52;;;;;;;3.43;2.40;;;7.20;98.00;;;;;;5013111;28;20463;-68
2023/11/13 03:05:19;;;;;;;3.60;2.33;;;7.20;98.00;;;;;;5013009;28;20453;-68
2023/11/13 03:07:47;;;;;;;4.87;3.03;;;7.40;98.00;;;;;;5013094;28;20489;-68
2023/11/13 03:10:14;;;;;;;3.77;2.47;;;7.40;98.00;;;;;;5012856;28;20450;-68
2023/11/13 03:12:41;;;;;;;5.97;2.93;;;7.40;98.00;;;;;;5013141;28;20454;-68
2023/11/13 03:15:11;;;;;;;4.30;2.63;;;7.40;98.00;;;;;;5013121;28;20456;-68
2023/11/13 03:17:38;;;;;;;5.53;2.80;;;7.30;98.00;;;;;;5013228;28;20447;-67
2023/11/13 03:20:07;;;;;;;2.80;2.17;;;7.30;98.00;;;;;;5012801;28;20523;-68
2023/11/13 03:22:34;;;;;;;4.13;2.63;;;7.30;98.00;;;;;;5012836;28;20850;-68
2023/11/13 03:25:01;;;;;;;4.97;2.53;;;7.30;98.00;;;;;;5012824;28;20459;-68
2023/11/13 03:27:28;;;;;;;5.70;2.97;;;7.40;98.00;;;;;;5012478;28;20495;-68
2023/11/13 03:29:57;;;;;;;6.60;3.00;;;7.40;98.00;;;;;;5012619;28;20772;-68
2023/11/13 03:32:26;;;;;;;4.83;2.30;;;7.50;98.00;;;;;;5011864;28;20477;-68
2023/11/13 03:34:54;;;;;;;3.70;2.33;;;7.50;98.00;;;;;;5012574;28;20456;-68
2023/11/13 03:37:21;;;;;;;9.30;3.20;;;7.60;98.00;;;;;;5012255;28;20522;-68
2023/11/13 03:39:51;;;;;;;5.00;2.90;;;7.60;98.00;;;;;;5012504;28;20973;-68
2023/11/13 03:42:18;;;;;;;4.30;2.50;;;7.60;98.00;;;;;;5012646;28;20525;-68
2023/11/13 03:44:45;;;;;;;4.20;2.63;;;7.60;98.00;;;;;;5012631;28;20447;-68
2023/11/13 03:47:13;;;;;;;4.23;2.70;;;7.40;98.00;;;;;;5012235;28;20716;-68
2023/11/13 03:49:41;;;;;;;3.87;2.57;;;7.40;98.00;;;;;;5012359;28;21001;-68
2023/11/13 03:52:13;;;;;;;5.00;2.80;;;7.50;98.00;;;;;;5012348;28;20510;-68
2023/11/13 03:54:40;;;;;;;5.00;2.70;;;7.60;98.00;;;;;;5012445;28;20456;-68
2023/11/13 03:57:10;;;;;;;4.97;2.50;;;7.60;98.00;;;;;;5011258;28;20543;-68
2023/11/13 03:59:37;;;;;;;4.53;2.47;;;7.60;98.00;;;;;;5012271;28;20556;-68
2023/11/13 04:02:04;;;;;;;4.77;2.60;;;7.70;98.00;;;;;;5010968;28;20456;-68
2023/11/13 04:04:31;;;;;;;5.43;2.67;;;7.60;98.00;;;;;;5012115;28;20823;-68
2023/11/13 04:07:01;;;;;;;5.40;2.90;;;7.60;98.00;;;;;;5011915;28;20457;-68
2023/11/13 04:09:28;;;;;;;5.77;3.00;;;7.70;98.00;;;;;;5012320;28;20459;-68
2023/11/13 04:11:56;;;;;;;4.27;2.70;;;7.80;98.00;;;;;;5010637;28;20458;-68
2023/11/13 04:14:23;;;;;;;5.47;2.87;;;7.80;98.00;;;;;;5012169;28;20509;-68
2023/11/13 04:16:50;;;;;;;6.17;2.90;;;7.70;98.00;;;;;;5011932;28;20450;-68
2023/11/13 04:19:17;;;;;;;6.23;3.10;;;7.50;98.00;;;;;;5012008;28;20454;-68
2023/11/13 04:21:46;;;;;;;4.60;2.60;;;7.50;98.00;;;;;;5011809;28;20449;-68
2023/11/13 04:24:15;;;;;;;6.83;3.13;;;7.50;98.00;;;;;;5012075;28;20553;-68
2023/11/13 04:26:43;;;;;;;5.93;2.73;;;7.60;98.00;;;;;;5012116;28;20449;-68
2023/11/13 04:29:11;;;;;;;4.63;2.80;;;7.60;98.00;;;;;;5011867;28;20516;-68
2023/11/13 04:31:38;;;;;;;5.63;3.00;;;7.70;98.00;;;;;;5011794;28;20460;-68
2023/11/13 04:34:06;;;;;;;5.50;2.87;;;7.60;98.00;;;;;;5010778;28;20457;-68
2023/11/13 04:36:33;;;;;;;6.50;2.70;;;7.50;98.00;;;;;;5012091;28;20524;-68
2023/11/13 04:39:00;;;;;;;2.97;2.40;;;7.60;98.00;;;;;;5010893;28;20457;-68
2023/11/13 04:41:29;;;;;;;2.70;2.30;;;7.60;98.00;;;;;;5011940;28;20450;-68
2023/11/13 04:43:56;;;;;;;4.00;2.10;;;7.70;98.00;;;;;;5011958;28;20454;-68
2023/11/13 04:46:24;;;;;;;2.80;2.27;;;7.80;98.00;;;;;;5012030;28;20511;-68
2023/11/13 04:48:51;;;;;;;3.80;2.10;;;7.90;98.00;;;;;;5012070;28;20491;-68
2023/11/13 04:51:19;;;;;;;5.93;2.07;;;8.10;98.00;;;;;;5011784;28;20509;-68
2023/11/13 04:53:46;;;;;;;3.47;2.33;;;8.30;98.00;;;;;;5012029;28;20936;-68
2023/11/13 04:56:13;;;;;;;4.43;2.50;;;8.30;98.00;;;;;;5011931;28;20492;-68
2023/11/13 04:58:43;;;;;;;2.50;1.80;;;8.40;98.00;;;;;;5012127;28;21002;-68
2023/11/13 05:01:10;;;;;;;2.73;2.00;;;8.40;98.00;;;;;;5011544;28;20533;-68
2023/11/13 05:03:38;;;;;;;2.70;2.00;;;8.60;98.00;;;;;;5012065;28;20517;-68
2023/11/13 05:06:05;;;;;;;3.33;1.80;;;8.80;98.00;;;;;;5010658;28;20470;-68
2023/11/13 05:08:32;;;;;;;4.40;2.40;;;8.90;98.00;;;;;;4997189;28;20584;-68
2023/11/13 05:11:00;;;;;;;3.97;2.63;;;9.00;98.00;;;;;;5015136;28;20457;-68
2023/11/13 05:13:27;;;;;;;4.30;2.37;;;9.10;98.00;;;;;;5015533;28;20510;-68
2023/11/13 05:15:56;;;;;;;2.40;2.07;;;9.10;98.00;;;;;;5015069;28;20534;-68
2023/11/13 05:18:23;;;;;;;4.63;2.10;;;9.10;98.00;;;;;;5013734;28;20459;-68
2023/11/13 05:20:51;;;;;;;2.53;1.97;;;9.10;98.00;;;;;;5014825;28;20451;-68
2023/11/13 05:23:18;;;;;;;2.77;1.67;;;9.30;98.00;;;;;;5014961;28;20463;-68
2023/11/13 05:25:47;;;;;;;3.00;1.87;;;9.40;98.00;;;;;;5014832;28;20509;-68
2023/11/13 05:28:14;;;;;;;3.23;2.10;;;9.50;98.00;;;;;;4997156;28;20541;-68
2023/11/13 05:30:41;;;;;;;2.37;1.50;;;9.50;98.00;;;;;;5014722;28;21000;-68
2023/11/13 05:33:09;;;;;;;2.83;1.60;;;9.70;98.00;;;;;;5014826;28;20483;-68
2023/11/13 05:35:36;;;;;;;2.47;1.40;;;9.80;98.00;;;;;;5014723;28;20466;-68
2023/11/13 05:38:04;;;;;;;2.50;1.67;;;10.00;98.00;;;;;;5014626;28;20474;-68
2023/11/13 05:40:31;;;;;;;6.10;2.00;;;10.10;98.00;;;;;;5014490;28;20513;-68
2023/11/13 05:43:00;;;;;;;2.70;1.60;;;10.20;98.00;;;;;;5014823;28;20456;-69
2023/11/13 05:45:27;;;;;;;2.60;1.47;;;10.40;98.00;;;;;;5014733;28;20962;-68
2023/11/13 05:47:54;;;;;;;3.97;1.60;;;10.50;98.00;;;;;;5014476;28;20518;-68
2023/11/13 05:50:23;;;;;;;6.30;1.80;;;10.60;98.00;;;;;;5014253;28;20447;-68
2023/11/13 05:52:51;;;;;;;3.70;1.60;;;10.60;98.00;;;;;;5014754;28;20767;-68
2023/11/13 05:55:18;;;;;;;4.33;1.80;;;10.70;98.00;;;;;;5013256;28;20463;-68
2023/11/13 05:57:45;;;;;;;7.40;2.23;;;10.70;98.00;;;;;;5014408;28;20466;-68
2023/11/13 06:00:13;;;;;;;4.47;2.13;;;10.80;98.00;;;;;;5012934;28;20471;-68
2023/11/13 06:02:40;;;;;;;3.00;1.70;;;10.80;98.00;;;;;;5014278;28;20457;-68
2023/11/13 06:05:08;;;;;;;2.63;1.77;;;10.90;98.00;;;;;;5014194;28;20526;-68
2023/11/13 06:07:37;;;;;;;3.83;1.73;;;10.90;98.00;;;;;;5013111;28;20458;-68
2023/11/13 06:10:07;;;;;;;3.60;1.87;;;10.80;98.00;;;;;;5014206;28;20456;-68
2023/11/13 06:12:34;;;;;;;2.17;1.60;;;10.90;98.00;;;;;;5014322;28;20485;-68
2023/11/13 06:15:03;;;;;;;5.57;2.30;;;10.90;98.00;;;;;;5014158;28;20463;-69
2023/11/13 06:17:30;;;;;;;3.00;1.60;;;11.00;98.00;;;;;;5012844;28;20467;-68
2023/11/13 06:19:56;;;;;;;7.07;2.00;;;11.00;98.00;;;;;;5011745;28;20453;-68
2023/11/13 06:22:23;;;;;;;5.93;2.23;;;11.00;98.00;;;;;;5013861;28;20469;-68
2023/11/13 06:24:52;;;;;;;5.17;1.87;;;11.10;98.00;;;;;;5014043;28;20451;-68
2023/11/13 06:27:19;;;;;;;7.80;2.00;;;11.10;98.00;;;;;;5013878;28;20453;-68
2023/11/13 06:29:46;;;;;;;4.03;1.70;;;11.10;98.00;;;;;;5012512;28;20496;-68
2023/11/13 06:32:14;;;;;;;8.50;2.00;;;11.10;98.00;;;;;;5013759;28;20504;-68
2023/11/13 06:34:41;;;;;;;5.50;2.10;;;11.20;98.00;;;;;;5014043;28;20550;-68
2023/11/13 06:37:11;;;;;;;4.30;1.97;;;11.20;98.00;;;;;;5013961;28;20476;-68
2023/11/13 06:39:39;;;;;;;2.77;1.60;;;11.20;98.00;;;;;;5013582;28;20852;-68
2023/11/13 06:42:08;;;;;;;3.30;1.90;;;11.30;98.00;;;;;;5012120;28;20927;-68
2023/11/13 06:44:35;;;;;;;5.63;1.80;;;11.30;98.00;;;;;;5013589;28;20485;-68
2023/11/13 06:47:02;;;;;;;5.70;1.70;;;11.20;98.00;;;;;;5012895;28;20464;-68
2023/11/13 06:49:29;;;;;;;2.17;1.60;;;11.20;98.00;;;;;;5013008;28;20530;-68
2023/11/13 06:51:56;;;;;;;5.07;2.27;;;11.10;98.00;;;;;;5013560;28;20882;-68
2023/11/13 06:54:25;;;;;;;3.93;1.80;;;11.10;98.00;;;;;;5012223;28;20461;-69
2023/11/13 06:56:52;;;;;;;5.43;1.90;;;11.00;98.00;;;;;;5013081;28;20470;-68
2023/11/13 06:59:24;;;;;;;4.67;2.03;;;10.90;98.00;;;;;;5013060;28;20458;-62
2023/11/13 07:01:51;;;;;;;5.10;2.40;;;10.90;98.00;;;;;;5011875;28;20471;-62
2023/11/13 07:04:18;;;;;;;2.60;2.30;;;10.80;98.00;;;;;;5013388;28;20460;-62
2023/11/13 07:06:45;;;;;;;5.80;2.43;;;10.70;98.00;;;;;;5011762;28;20453;-62
2023/11/13 07:09:13;;;;;;;6.43;2.67;;;10.70;98.00;;;;;;5012790;28;20489;-62
2023/11/13 07:11:42;;;;;;;3.33;2.13;;;10.70;98.00;;;;;;5012974;28;20522;-62
2023/11/13 07:14:10;;;;;;;4.10;2.57;;;10.60;98.00;;;;;;5013033;28;20456;-62
2023/11/13 07:16:38;;;;;;;4.00;2.70;;;10.70;98.00;;;;;;5012790;28;20465;-62
2023/11/13 07:19:06;;;;;;;6.17;3.07;;;10.60;98.00;;;;;;5012859;28;20455;-62
2023/11/13 07:21:41;;;;;;;4.70;2.70;;;10.60;98.00;;;;;;5012450;28;20500;-62
2023/11/13 07:24:09;;;;;;;7.03;2.83;;;10.60;98.00;;;;;;5012409;28;20465;-62
2023/11/13 07:26:36;;;;;;;5.23;2.80;;;10.60;98.00;;;;;;5011073;28;20461;-62
2023/11/13 07:29:04;;;;;;;4.37;2.60;;;10.60;98.00;;;;;;5012223;28;20572;-62
2023/11/13 07:31:31;;;;;;;5.43;2.30;;;10.70;98.00;;;;;;5012128;28;20539;-63
2023/11/13 07:34:01;;;;;;;5.87;2.00;;;10.70;98.00;;;;;;5012520;28;20473;-62
2023/11/13 07:36:31;;;;;;;4.80;2.17;;;10.60;98.00;;;;;;5012493;28;20454;-62
2023/11/13 07:38:58;;;;;;;5.23;2.60;;;10.60;98.00;;;;;;5011486;28;20485;-62
2023/11/13 07:41:25;;;;;;;4.80;2.07;;;10.50;98.00;;;;;;5012443;28;20991;-62
2023/11/13 07:43:54;;;;;;;4.23;2.20;;;10.50;98.00;;;;;;5012747;28;20791;-62
2023/11/13 07:46:21;;;;;;;3.00;1.93;;;10.50;98.00;;;;;;5012630;28;20454;-62
2023/11/13 07:48:48;;;;;;;4.17;2.10;;;10.50;98.00;;;;;;5012678;28;20560;-62
2023/11/13 07:51:17;;;;;;;4.30;2.20;;;10.60;98.00;;;;;;5012314;28;20449;-62
2023/11/13 07:53:46;;;;;;;5.67;2.30;;;10.60;98.00;;;;;;5012439;28;20504;-62
2023/11/13 07:56:19;;;;;;;5.37;2.20;;;10.60;98.00;;;;;;5012608;28;21166;-62
2023/11/13 07:58:46;;;;;;;3.97;2.00;;;10.60;98.00;;;;;;5012633;28;20544;-62
2023/11/13 08:01:13;;;;;;;5.87;2.87;;;10.60;98.00;;;;;;5012306;28;20867;-62
2023/11/13 08:03:40;;;;;;;3.40;2.10;;;10.60;98.00;;;;;;5011274;28;20790;-62
2023/11/13 08:06:10;;;;;;;6.13;1.90;;;10.60;98.00;;;;;;5012310;28;20456;-62
2023/11/13 08:08:38;;;;;;;4.77;2.10;;;10.70;98.00;;;;;;5011270;28;20480;-62
2023/11/13 08:11:07;;;;;;;4.70;2.10;;;10.70;98.00;;;;;;5012203;28;20460;-62
2023/11/13 08:13:35;;;;;;;5.83;2.20;;;10.80;98.00;;;;;;5011132;28;20977;-62
2023/11/13 08:16:04;;;;;;;3.13;2.00;;;10.90;98.00;;;;;;5010972;28;20472;-62
2023/11/13 08:18:32;;;;;;;3.77;1.90;;;10.90;98.00;;;;;;5012505;28;20953;-62
2023/11/13 08:20:59;;;;;;;3.80;2.00;;;11.00;98.00;;;;;;5011985;28;20454;-62
2023/11/13 08:23:29;;;;;;;15.87;2.40;;;11.00;98.00;;;;;;5012161;28;20453;-62
2023/11/13 08:25:59;;;;;;;5.47;2.07;;;11.10;98.00;;;;;;5011135;28;20453;-62
2023/11/13 08:28:26;;;;;;;6.93;2.50;;;11.00;98.00;;;;;;5011677;28;20515;-62
2023/11/13 08:30:56;;;;;;;2.17;1.60;;;11.00;98.00;;;;;;5011706;28;20458;-62
2023/11/13 08:33:23;;;;;;;2.77;2.00;;;11.10;98.00;;;;;;5012134;28;20446;-62
2023/11/13 08:35:51;;;;;;;6.90;2.03;;;11.00;98.00;;;;;;5011965;28;20453;-62
2023/11/13 08:38:18;;;;;;;4.60;2.07;;;11.00;98.00;;;;;;5011875;28;20499;-62
2023/11/13 08:40:50;;;;;;;2.63;1.70;;;11.10;98.00;;;;;;5010509;28;20944;-62
2023/11/13 08:43:19;;;;;;;5.10;2.03;;;11.00;98.00;;;;;;5014753;28;20461;-62
2023/11/13 08:45:46;;;;;;;4.60;1.77;;;11.00;98.00;;;;;;5015693;28;20471;-62
2023/11/13 08:48:13;;;;;;;2.97;1.80;;;11.00;98.00;;;;;;5015802;28;20453;-61
2023/11/13 08:50:43;;;;;;;5.07;2.47;;;10.90;98.00;;;;;;5015546;28;20977;-62
2023/11/13 08:53:11;;;;;;;3.50;2.20;;;10.80;98.00;;;;;;5015564;28;20477;-62
2023/11/13 08:55:39;;;;;;;6.60;2.30;;;11.00;98.00;;;;;;5015376;28;20505;-63
2023/11/13 08:58:06;;;;;;;3.53;2.00;;;11.60;98.00;;;;;;5015642;28;20455;-63
2023/11/13 09:00:41;;;;;;;3.90;2.37;;;12.10;98.00;;;;;;5015298;28;20502;-62
2023/11/13 09:03:09;;;;;;;9.63;2.00;;;12.40;98.00;;;;;;5015522;28;20457;-62
2023/11/13 09:05:38;;;;;;;3.00;1.90;;;12.50;98.00;;;;;;5015541;28;20448;-62
2023/11/13 09:08:05;;;;;;;3.80;2.00;;;12.30;98.00;;;;;;5015538;28;20454;-62
2023/11/13 09:10:32;;;;;;;3.80;1.90;;;12.00;98.00;;;;;;5014917;28;20485;-61
2023/11/13 09:13:00;;;;;;;6.80;1.90;;;11.80;98.00;;;;;;5014086;28;20927;-62
2023/11/13 09:15:28;;;;;;;4.03;2.10;;;11.80;98.00;;;;;;5015274;28;20452;-62
2023/11/13 09:18:01;;;;;;;3.50;1.87;;;11.70;98.00;;;;;;5015399;28;20541;-61
2023/11/13 09:20:29;;;;;;;3.80;1.60;;;11.50;98.00;;;;;;5015243;28;20515;-62
2023/11/13 09:22:56;;;;;;;2.67;1.60;;;11.40;98.00;;;;;;5015271;28;20457;-62
2023/11/13 09:25:23;;;;;;;6.50;2.20;;;11.20;98.00;;;;;;5015102;28;20515;-62
2023/11/13 09:27:51;;;;;;;4.17;1.70;;;11.20;98.00;;;;;;5015022;28;20470;-62
2023/11/13 09:30:21;;;;;;;3.50;2.00;;;11.30;98.00;;;;;;5014822;28;20486;-62
2023/11/13 09:32:50;;;;;;;3.20;1.77;;;11.30;98.00;;;;;;5015022;28;20451;-62
2023/11/13 09:35:22;;;;;;;5.40;1.97;;;11.10;98.00;;;;;;5014858;28;20812;-62
2023/11/13 09:37:50;;;;;;;4.63;2.27;;;11.00;98.00;;;;;;5014884;28;21182;-62
2023/11/13 09:40:19;;;;;;;1.90;1.63;;;11.00;98.00;;;;;;5014888;28;20465;-62
2023/11/13 09:42:49;;;;;;;3.47;1.80;;;10.90;98.00;;;;;;5014857;28;20460;-61
2023/11/13 09:45:18;;;;;;;3.27;1.63;;;11.00;98.00;;;;;;5014738;28;20457;-62
2023/11/13 09:47:45;;;;;;;6.40;1.80;;;11.00;98.00;;;;;;5013857;28;20831;-62
2023/11/13 09:50:16;;;;;;;3.03;1.50;;;11.10;98.00;;;;;;5022554;28;20486;-62
2023/11/13 09:52:48;;;;;;;3.00;1.90;;;11.10;98.00;;;;;;5033493;28;20886;-62
2023/11/13 09:55:18;;;;;;;5.87;2.00;;;11.10;98.00;;;;;;5032972;28;20581;-61
2023/11/13 09:57:48;;;;;;;5.37;1.90;;;11.10;98.00;;;;;;5034086;28;20549;-62
2023/11/13 10:00:18;;;;;;;4.37;2.20;;;11.20;98.00;;;;;;5033734;28;20451;-62
2023/11/13 10:02:47;;;;;;;3.93;2.10;;;11.20;98.00;;;;;;5033663;28;20454;-62
2023/11/13 10:05:18;;;;;;;4.00;2.57;;;11.10;98.00;;;;;;5033593;28;20482;-62
2023/11/13 10:07:48;;;;;;;7.80;2.17;;;11.10;98.00;;;;;;5033259;28;20469;-62
2023/11/13 10:10:22;;;;;;;2.93;1.80;;;11.10;98.00;;;;;;5033194;28;20844;-61
2023/11/13 10:12:50;;;;;;;4.03;2.03;;;11.10;98.00;;;;;;5033416;28;20453;-62
2023/11/13 10:15:24;;;;;;;5.60;1.97;;;11.10;98.00;;;;;;5033192;28;20791;-62
2023/11/13 10:17:52;;;;;;;2.40;1.90;;;11.10;98.00;;;;;;5033170;28;20882;-62
2023/11/13 10:20:20;;;;;;;5.63;1.70;;;11.30;98.00;;;;;;5033100;28;20503;-61
2023/11/13 10:22:59;;;;;;;5.10;1.60;;;11.40;98.00;;;;;;5032955;28;20975;-61
2023/11/13 10:25:30;;;;;;;1.97;1.60;;;11.50;98.00;;;;;;5033043;28;21001;-62
2023/11/13 10:27:59;;;;;;;6.40;1.90;;;11.50;98.00;;;;;;5032704;28;20460;-62
2023/11/13 10:30:28;;;;;;;2.90;1.87;;;11.60;98.00;;;;;;5032798;28;20513;-62
2023/11/13 10:32:56;;;;;;;2.30;1.63;;;11.70;98.00;;;;;;5032724;28;20510;-61
2023/11/13 10:35:35;;;;;;;2.77;1.70;;;11.70;98.00;;;;;;5032864;28;20826;-62
2023/11/13 10:38:07;;;;;;;2.40;1.70;;;11.80;98.00;;;;;;5032977;28;20459;-62
2023/11/13 10:40:39;;;;;;;2.17;1.63;;;11.90;98.00;;;;;;5032812;28;20719;-62
2023/11/13 10:43:07;;;;;;;5.93;1.80;;;11.90;98.00;;;;;;5031451;28;20506;-62
2023/11/13 10:45:46;;;;;;;1.80;1.50;;;12.00;98.00;;;;;;5032515;28;20438;-63
2023/11/13 10:48:14;;;;;;;2.80;1.70;;;12.00;98.00;;;;;;5031459;28;20461;-63
2023/11/13 10:50:41;;;;;;;2.80;1.53;;;12.10;98.00;;;;;;5032325;28;20491;-63
2023/11/13 10:53:12;;;;;;;4.20;1.90;;;12.10;98.00;;;;;;5032559;28;20462;-63
2023/11/13 10:55:42;;;;;;;4.93;2.00;;;12.20;98.00;;;;;;5032366;28;20973;-63
2023/11/13 10:58:09;;;;;;;2.00;1.50;;;12.30;98.00;;;;;;5032358;28;20453;-63
2023/11/13 11:00:36;;;;;;;2.13;1.90;;;12.30;98.00;;;;;;5032399;28;20455;-63
2023/11/13 11:03:09;;;;;;;2.77;1.73;;;12.40;98.00;;;;;;5032228;28;20455;-63
2023/11/13 11:05:42;;;;;;;3.33;1.63;;;12.40;98.00;;;;;;5031708;28;20458;-63
2023/11/13 11:08:12;;;;;;;2.47;1.70;;;12.50;98.00;;;;;;5032279;28;20457;-63
2023/11/13 11:10:41;;;;;;;2.67;2.07;;;12.60;98.00;;;;;;5030772;28;20524;-63
2023/11/13 11:13:11;;;;;;;4.07;1.80;;;12.60;98.00;;;;;;5032132;28;20458;-63
2023/11/13 11:16:05;;;;;;;2.17;1.80;;;12.60;98.00;;;;;;5032174;28;20463;-63
2023/11/13 11:18:39;;;;;;;2.20;1.67;;;12.70;98.00;;;;;;5023201;28;20811;-63
2023/11/13 11:21:16;;;;;;;3.83;1.83;;;12.80;98.00;;;;;;5031857;28;20464;-63
2023/11/13 11:23:51;;;;;;;2.10;1.77;;;12.80;98.00;;;;;;5031999;28;20531;-63
2023/11/13 11:26:19;;;;;;;7.17;2.07;;;12.80;98.00;;;;;;5031807;28;20456;-63
2023/11/13 11:28:48;;;;;;;4.27;2.10;;;12.80;98.00;;;;;;5031811;28;20461;-63
2023/11/13 11:31:48;;;;;;;3.40;2.03;;;12.90;98.00;;;;;;5031570;28;20494;-63
2023/11/13 11:34:23;;;;;;;3.70;2.00;;;12.90;98.00;;;;;;5029953;28;20461;-63
2023/11/13 11:36:56;;;;;;;8.43;2.47;;;12.90;98.00;;;;;;5030612;28;20970;-63
2023/11/13 11:39:25;;;;;;;2.63;2.00;;;12.90;98.00;;;;;;5032120;28;20945;-63
2023/11/13 11:41:52;;;;;;;3.80;2.00;;;12.80;98.00;;;;;;5031640;28;20454;-63
2023/11/13 11:44:22;;;;;;;3.53;2.00;;;12.90;98.00;;;;;;5031722;28;20475;-63
2023/11/13 11:46:49;;;;;;;5.30;1.90;;;12.90;98.00;;;;;;5031550;28;20498;-63
2023/11/13 11:49:25;;;;;;;7.13;2.20;;;13.00;98.00;;;;;;5031413;28;20514;-63
2023/11/13 11:51:56;;;;;;;5.23;2.27;;;13.00;98.00;;;;;;5031438;28;20478;-63
2023/11/13 11:54:25;;;;;;;4.90;2.10;;;13.00;98.00;;;;;;5031484;28;20479;-63
2023/11/13 11:57:01;;;;;;;4.30;2.17;;;13.00;98.00;;;;;;5031343;28;20886;-63
2023/11/13 11:59:29;;;;;;;3.50;2.30;;;13.00;98.00;;;;;;5031321;28;20800;-63
2023/11/13 12:01:57;;;;;;;3.40;2.03;;;13.00;98.00;;;;;;5031200;28;20548;-63
2023/11/13 12:04:24;;;;;;;4.17;2.10;;;13.10;98.00;;;;;;5031446;28;20495;-63
2023/11/13 12:06:54;;;;;;;4.03;2.13;;;13.10;98.00;;;;;;5031164;28;21022;-63
2023/11/13 12:09:22;;;;;;;4.13;2.20;;;13.10;98.00;;;;;;5031281;28;20968;-63
2023/11/13 12:11:51;;;;;;;4.37;2.07;;;13.20;98.00;;;;;;5030913;28;20463;-63
2023/11/13 12:14:19;;;;;;;5.63;2.20;;;13.20;98.00;;;;;;5031370;28;20819;-63
2023/11/13 12:16:48;;;;;;;4.73;2.10;;;13.20;98.00;;;;;;5030193;28;20456;-63
2023/11/13 12:19:16;;;;;;;3.40;2.23;;;13.30;98.00;;;;;;5031055;28;20468;-63
2023/11/13 12:21:43;;;;;;;3.23;1.77;;;13.30;98.00;;;;;;5031110;28;20460;-63
2023/11/13 12:24:12;;;;;;;3.20;2.30;;;13.30;98.00;;;;;;5030958;28;20446;-63
2023/11/13 12:26:41;;;;;;;5.63;2.10;;;13.30;98.00;;;;;;5030350;28;20498;-63
2023/11/13 12:29:16;;;;;;;7.03;2.20;;;13.30;98.00;;;;;;5030855;28;20463;-63
2023/11/13 12:31:46;;;;;;;3.17;2.10;;;13.40;98.00;;;;;;5030712;28;20486;-63
2023/11/13 12:34:15;;;;;;;3.53;2.17;;;13.40;98.00;;;;;;5031119;28;20667;-63
2023/11/13 12:36:47;;;;;;;4.87;2.40;;;13.50;98.00;;;;;;5030966;28;20554;-63
2023/11/13 12:39:19;;;;;;;3.50;2.20;;;13.60;98.00;;;;;;5030983;28;20538;-63
2023/11/13 12:41:51;;;;;;;3.40;1.90;;;13.70;98.00;;;;;;5030884;28;20473;-63
2023/11/13 12:44:22;;;;;;;6.20;2.10;;;13.70;98.00;;;;;;5030920;28;20504;-63
2023/11/13 12:46:53;;;;;;;3.43;1.93;;;13.70;98.00;;;;;;5030856;28;20463;-63
2023/11/13 12:49:21;;;;;;;4.70;2.10;;;13.70;98.00;;;;;;5030931;28;20507;-63
2023/11/13 12:51:50;;;;;;;5.47;2.20;;;13.70;98.00;;;;;;5030604;28;20850;-63
2023/11/13 12:54:17;;;;;;;4.63;2.07;;;13.70;98.00;;;;;;5030871;28;20820;-63
2023/11/13 12:56:46;;;;;;;2.60;2.03;;;13.70;98.00;;;;;;5030717;28;20464;-63